Downloads von macur
sortieren nach:
2017 Grammy Nominees Musik Sampler 139 MB 22.01.2017 08:05:35 Uhr
Sven Banis - Zwanzigmal Aus 20 Jahren (2017) Musik Sampler 148 MB 20.01.2017 19:22:23 Uhr
German Top 100 Single Charts [20.01.2017] Musik Sampler 805 MB 20.01.2017 17:58:03 Uhr
German Top 50 ODC Official Dance Charts 20.01.2017 Musik Sampler 408 MB 20.01.2017 13:23:39 Uhr
German Top 40 DBC Deutsche Black Charts 20.01.2017 Musik Sampler 304 MB 20.01.2017 13:04:51 Uhr
Schlager Champions - Das große Fest der Besten (2017) Musik Sampler 261 MB 20.01.2017 12:47:00 Uhr
Kontor Trapical 2017 (2017) Musik Sampler 366 MB 20.01.2017 07:09:45 Uhr
Pillath - Onkel der Nation (2017) Musik Alben 101 MB 19.01.2017 16:14:15 Uhr
Billboard Hot 100 Single Charts 28.01.2017 Musik Sampler 745 MB 19.01.2017 06:47:33 Uhr
Pudgee - King Of New York (Limited Edition) (2017) Musik Alben 163 MB 19.01.2017 06:23:52 Uhr
Bonobo - Migration (2017) Musik Alben 141 MB 19.01.2017 06:06:00 Uhr
100 Stimmungs Schlager - Die Party Geht Weiter! (5CD) ( [...] Musik Sampler 491 MB 18.01.2017 17:07:16 Uhr
German Top50 ODC Official Dance Charts 13.01.2017 Musik Sampler 406 MB 17.01.2017 17:58:53 Uhr
Die Schlagerparty - Vol. 02 (2017) Musik Sampler 165 MB 17.01.2017 11:36:33 Uhr
Victorius - Heart Of The Phoenix (2017) Musik Alben 110 MB 17.01.2017 06:57:01 Uhr
Ronny's Pop Show (Best Of!) (3 CD) (2017) Musik Sampler 541 MB 16.01.2017 07:26:53 Uhr
Reggae 2017 (2017) Musik Sampler 161 MB 15.01.2017 06:31:29 Uhr
MC Miso - Plattenvertrag (2017) Musik Alben 104 MB 14.01.2017 14:06:43 Uhr
US Billboard Top 100 Single Charts 21.01.2017 Musik Sampler 739 MB 14.01.2017 13:51:44 Uhr
German Top 40 DBC Deutsche Black Charts 13.01.2017 Musik Sampler 297 MB 14.01.2017 06:36:15 Uhr
Betontod - Revolution (2017) Musik Alben 101 MB 14.01.2017 06:16:33 Uhr
Apres Ski Power Und Pulverschnee 2017 (2017) Musik Sampler 381 MB 13.01.2017 20:02:14 Uhr
German Top 100 Single Charts Neueinsteiger 13.01.2017 Musik Sampler 127 MB 13.01.2017 16:24:48 Uhr
German Top 100 Single Charts 13.01.2017 Musik Sampler 804 MB 13.01.2017 16:06:13 Uhr
Made In Germany Vol. 8 (2017) Musik Sampler 236 MB 13.01.2017 07:08:27 Uhr
Bosca - Cobra 3 (Deluxe Edition) (2017) Musik Alben 258 MB 13.01.2017 06:53:34 Uhr
Witten Untouchable - Republic Of Untouchable (2017) Musik Alben 109 MB 12.01.2017 18:22:26 Uhr
Bosca - Cobra 3 (2017) Musik Alben 108 MB 12.01.2017 18:02:42 Uhr
Hip Hop TXL Vol. 86 (2016) Musik Sampler 571 MB 11.01.2017 20:16:40 Uhr
Nrj Winter Hits 2017 Musik Sampler 332 MB 11.01.2017 14:52:17 Uhr
KLUBBB3 - Jetzt geht's richtig los! (2017) Musik Alben 101 MB 11.01.2017 07:31:31 Uhr
Metallica - Hardwired…To Self-Destruct (Deluxe Editio [...] Musik Alben 359 MB 10.01.2017 18:58:01 Uhr
Reeperbahn Kareem - Aus dem Schatten der Blocks (2017) Musik Alben 129 MB 09.01.2017 18:23:07 Uhr
Discofox Party Hitmix 2017.1 (2017) Musik Sampler 312 MB 08.01.2017 06:23:50 Uhr
Hamburger Kuechensession Vol. 4 (2017) Musik Sampler 310 MB 07.01.2017 18:48:08 Uhr
Schlager-Hit-Express Schlagerparty 2017.1 (2017) Musik Sampler 170 MB 07.01.2017 16:36:32 Uhr
German Top 30 Party Schlager Charts 09.01.2017 Musik Sampler 247 MB 07.01.2017 05:49:02 Uhr
Krawallbrüder - Mehr Hass (Deluxe Edition) (2017) Musik Alben 153 MB 07.01.2017 05:33:56 Uhr
German Top 50 ODC Official Dance Charts 06.01.2017 Musik Sampler 406 MB 06.01.2017 13:51:15 Uhr
Fette Beats (präsentiert von DJ Ostkurve) (2017) Musik Sampler 170 MB 06.01.2017 09:47:39 Uhr
Dream Dance Vol. 82 (2017) Musik Sampler 550 MB 06.01.2017 06:18:03 Uhr
Billboard Hot 100 Singles Chart, 14 January 2017 Musik Sampler 756 MB 05.01.2017 21:02:55 Uhr
Eno - Xalaz (2017) Musik Alben 100 MB 05.01.2017 17:56:53 Uhr
Vanessa Mai - Für dich - Live aus Berlin (2017) Musik Alben 244 MB 05.01.2017 15:51:08 Uhr
Andrea Berg - Seelenbeben Tour-Edition Live (2017) Musik Alben 314 MB 05.01.2017 06:06:34 Uhr
German Top 50 Party Schlager Jahrescharts 2016 (2016) Musik Sampler 406 MB 04.01.2017 12:53:07 Uhr
German Top 100 Jahrescharts 2016 inkl. Cover und BPM Musik Sampler 805 MB 03.01.2017 18:11:26 Uhr
US TOP20 Single Charts 07.01.2017 Musik Sampler 179 MB 03.01.2017 10:02:39 Uhr
German Top 100 Jahrescharts 2016 Musik Sampler 802 MB 03.01.2017 06:09:30 Uhr
Us Billboard Single Charts TOP100 07.01.2017 Musik Sampler 859 MB 02.01.2017 16:40:59 Uhr

Seite:  1 2 3 4

Movies | Games | Musik | eBooks | Serien | Appz | XXX | Handy